Time;durP1;ratioP1;P1;durP2;ratioP2;P2;SDS_P1;SDS_P2;PMS_P1;PMS_P2;Temp;Humidity;BMP_temperature;BMP_pressure;BME280_temperature;BME280_humidity;BME280_pressure;Samples;Min_cycle;Max_cycle;Signal;HPM_P1;HPM_P2
2021/09/10 00:00:06;;;;;;;26.10;11.80;;;;;;;12.98;54.99;99186.46;111945;1207;107521;-75
2021/09/10 00:02:53;;;;;;;27.00;10.90;;;;;;;12.97;55.29;99189.38;112188;1200;98939;-75
2021/09/10 00:05:23;;;;;;;24.40;11.50;;;;;;;12.99;55.05;99189.65;111959;1201;98943;-75
2021/09/10 00:07:52;;;;;;;26.20;11.70;;;;;;;13.00;55.29;99187.41;111910;1200;112510;-75
2021/09/10 00:10:20;;;;;;;24.20;11.20;;;;;;;13.02;55.37;99190.44;111958;1207;98954;-76
2021/09/10 00:12:48;;;;;;;25.10;12.10;;;;;;;13.04;55.45;99192.36;111909;1207;107474;-75
2021/09/10 00:15:16;;;;;;;22.80;10.80;;;;;;;13.07;55.43;99190.02;111886;1200;99111;-73
2021/09/10 00:17:47;;;;;;;26.60;11.80;;;;;;;13.07;55.42;99192.98;111965;1200;98937;-75
2021/09/10 00:20:15;;;;;;;26.20;11.90;;;;;;;13.07;55.66;99190.73;111913;1207;112862;-74
2021/09/10 00:22:43;;;;;;;20.60;9.70;;;;;;;13.07;55.61;99191.45;111944;1207;97153;-74
2021/09/10 00:25:11;;;;;;;22.70;10.80;;;;;;;13.09;55.59;99192.70;111918;1207;107420;-76
2021/09/10 00:27:41;;;;;;;24.40;11.40;;;;;;;13.13;55.65;99195.27;112057;1201;96458;-78
2021/09/10 00:30:10;;;;;;;25.30;10.60;;;;;;;13.15;55.57;99193.27;111931;1199;97016;-76
2021/09/10 00:32:38;;;;;;;24.10;10.80;;;;;;;13.17;55.52;99193.88;112309;1200;112280;-76
2021/09/10 00:35:08;;;;;;;24.40;11.40;;;;;;;13.15;55.66;99195.80;111980;1207;96847;-75
2021/09/10 00:37:38;;;;;;;23.20;10.80;;;;;;;13.13;55.66;99198.91;111976;1207;107529;-76
2021/09/10 00:40:09;;;;;;;25.10;10.80;;;;;;;13.11;55.79;99201.23;111980;1199;99099;-75
2021/09/10 00:42:36;;;;;;;20.20;9.40;;;;;;;13.11;55.87;99197.84;111974;1201;96308;-75
2021/09/10 00:45:07;;;;;;;22.70;9.90;;;;;;;13.14;55.96;99197.98;111986;1200;111523;-74
2021/09/10 00:47:39;;;;;;;22.00;9.20;;;;;;;13.19;56.07;99201.86;112002;1207;99003;-75
2021/09/10 00:50:10;;;;;;;22.00;8.70;;;;;;;13.22;56.23;99199.45;111979;1207;107620;-74
2021/09/10 00:52:38;;;;;;;22.00;9.80;;;;;;;13.25;56.02;99200.33;111950;1201;99001;-74
2021/09/10 00:55:09;;;;;;;23.50;9.70;;;;;;;13.25;56.16;99199.04;111945;1201;99027;-76
2021/09/10 00:57:37;;;;;;;22.80;9.90;;;;;;;13.25;56.28;99196.39;111952;1201;112564;-74
2021/09/10 01:00:07;;;;;;;21.10;9.00;;;;;;;13.25;56.09;99196.23;111980;1207;99130;-74
2021/09/10 01:02:35;;;;;;;22.70;10.00;;;;;;;13.23;56.09;99199.06;112219;1200;108351;-74
2021/09/10 01:05:08;;;;;;;20.40;8.80;;;;;;;13.21;56.22;99200.11;112058;1199;98997;-74
2021/09/10 01:07:36;;;;;;;23.30;10.10;;;;;;;13.21;56.30;99202.98;111953;1203;98929;-73
2021/09/10 01:10:04;;;;;;;22.60;10.30;;;;;;;13.21;56.31;99201.34;111948;1200;112548;-73
2021/09/10 01:12:36;;;;;;;24.20;10.60;;;;;;;13.21;56.44;99202.07;112001;1207;99078;-74
2021/09/10 01:15:06;;;;;;;22.70;10.10;;;;;;;13.18;56.38;99201.40;111970;1207;105600;-73
2021/09/10 01:17:37;;;;;;;21.40;10.10;;;;;;;13.17;56.54;99196.89;111952;1200;99004;-72
2021/09/10 01:20:09;;;;;;;20.50;9.10;;;;;;;13.18;56.58;99200.14;111954;1202;96566;-73
2021/09/10 01:22:38;;;;;;;21.50;9.40;;;;;;;13.20;56.80;99199.98;111995;1207;112490;-72
2021/09/10 01:25:13;;;;;;;20.40;9.30;;;;;;;13.23;56.75;99199.73;111953;1200;99043;-70
2021/09/10 01:27:46;;;;;;;20.30;9.40;;;;;;;13.24;56.70;99204.24;111947;1199;105798;-73
2021/09/10 01:30:20;;;;;;;22.20;9.00;;;;;;;13.25;56.81;99202.63;111954;1200;96311;-73
2021/09/10 01:32:51;;;;;;;22.50;9.50;;;;;;;13.24;57.01;99203.20;111981;1200;99060;-72
2021/09/10 01:35:21;;;;;;;20.80;8.90;;;;;;;13.25;57.00;99203.66;111956;1207;112512;-73
2021/09/10 01:37:49;;;;;;;20.20;8.70;;;;;;;13.27;56.96;99207.61;111964;1207;99008;-72
2021/09/10 01:40:19;;;;;;;21.60;9.50;;;;;;;13.27;57.04;99203.33;111957;1207;107064;-73
2021/09/10 01:42:47;;;;;;;25.90;10.60;;;;;;;13.26;56.97;99203.99;111912;1207;99014;-73
2021/09/10 01:45:17;;;;;;;19.70;8.70;;;;;;;13.22;57.12;99207.12;111916;1207;96773;-73
2021/09/10 01:47:47;;;;;;;19.40;8.60;;;;;;;13.21;57.23;99210.59;111945;1207;112505;-72
2021/09/10 01:50:20;;;;;;;22.50;9.80;;;;;;;13.19;57.30;99206.14;111956;1200;98992;-78
2021/09/10 01:52:48;;;;;;;21.10;9.70;;;;;;;13.18;57.34;99211.39;111968;1207;107391;-75
2021/09/10 01:55:16;;;;;;;20.30;9.10;;;;;;;13.15;57.41;99206.48;111947;1202;96295;-76
2021/09/10 01:57:48;;;;;;;23.00;10.30;;;;;;;13.10;57.23;99207.69;111957;1207;99162;-76
2021/09/10 02:00:19;;;;;;;20.90;9.10;;;;;;;13.06;57.51;99205.94;111952;1200;112052;-75
2021/09/10 02:02:49;;;;;;;21.50;9.90;;;;;;;13.05;57.58;99207.95;111995;1207;98869;-73
2021/09/10 02:05:18;;;;;;;19.40;9.20;;;;;;;13.05;57.61;99208.65;111965;1207;107461;-74
2021/09/10 02:07:45;;;;;;;20.40;9.10;;;;;;;13.05;57.61;99208.85;111960;1207;99056;-73
2021/09/10 02:10:14;;;;;;;22.00;9.90;;;;;;;13.05;57.77;99209.22;111999;1207;97796;-74
2021/09/10 02:12:42;;;;;;;21.90;9.00;;;;;;;13.07;57.84;99210.30;113097;1199;112518;-73
2021/09/10 02:15:15;;;;;;;20.10;9.10;;;;;;;13.07;57.81;99207.96;111999;1207;98925;-76
2021/09/10 02:17:43;;;;;;;20.30;9.00;;;;;;;13.08;57.81;99208.23;111953;1207;107612;-75
2021/09/10 02:20:13;;;;;;;20.70;8.80;;;;;;;13.09;57.75;99208.70;112051;1207;100093;-74
2021/09/10 02:22:41;;;;;;;17.30;7.70;;;;;;;13.10;57.86;99206.81;111953;1207;97443;-75
2021/09/10 02:25:09;;;;;;;19.40;8.70;;;;;;;13.11;57.86;99211.93;111985;1203;112478;-75
2021/09/10 02:27:37;;;;;;;21.50;8.90;;;;;;;13.12;57.96;99210.63;112170;1200;96954;-74
2021/09/10 02:30:08;;;;;;;20.70;8.80;;;;;;;13.13;57.95;99210.91;111967;1207;107488;-75
2021/09/10 02:32:35;;;;;;;22.70;8.90;;;;;;;13.15;57.95;99210.95;111990;1207;98942;-75
2021/09/10 02:35:06;;;;;;;20.00;8.70;;;;;;;13.14;57.97;99207.94;111998;1202;99044;-74
2021/09/10 02:37:34;;;;;;;21.70;8.80;;;;;;;13.15;58.08;99203.67;111983;1207;112539;-74
2021/09/10 02:40:05;;;;;;;19.70;8.40;;;;;;;13.14;58.13;99204.08;111980;1207;98953;-74
2021/09/10 02:42:33;;;;;;;21.00;8.70;;;;;;;13.14;58.13;99208.33;111945;1208;107475;-74
2021/09/10 02:45:02;;;;;;;19.30;8.70;;;;;;;13.13;58.10;99205.02;111980;1207;98932;-73
2021/09/10 02:47:32;;;;;;;21.00;8.30;;;;;;;13.11;58.17;99205.31;111939;1201;99036;-75
2021/09/10 02:50:00;;;;;;;19.70;8.80;;;;;;;13.09;58.19;99207.45;111985;1207;112518;-72
2021/09/10 02:52:28;;;;;;;21.50;9.30;;;;;;;13.08;58.30;99203.65;111972;1207;98942;-75
2021/09/10 02:54:56;;;;;;;19.00;8.80;;;;;;;13.07;58.19;99204.41;111958;1207;107526;-75
2021/09/10 02:57:24;;;;;;;21.60;8.30;;;;;;;13.06;58.35;99204.35;111960;1207;99062;-75
2021/09/10 02:59:51;;;;;;;20.60;8.80;;;;;;;13.04;58.35;99202.85;112015;1207;99033;-76
2021/09/10 03:02:19;;;;;;;20.60;8.30;;;;;;;13.05;58.32;99204.27;112010;1203;113104;-80
2021/09/10 03:04:52;;;;;;;20.90;9.30;;;;;;;13.04;58.46;99200.91;111993;1207;98938;-76
2021/09/10 03:07:20;;;;;;;22.00;9.40;;;;;;;13.04;58.51;99200.91;111981;1207;107420;-76
2021/09/10 03:09:50;;;;;;;22.80;9.10;;;;;;;13.03;58.51;99201.00;112009;1202;98945;-77
2021/09/10 03:12:17;;;;;;;23.50;9.80;;;;;;;13.02;58.45;99201.63;112012;1208;98961;-77
2021/09/10 03:14:45;;;;;;;21.10;8.60;;;;;;;13.01;58.52;99199.93;112023;1209;112412;-76
2021/09/10 03:17:15;;;;;;;19.50;8.70;;;;;;;12.99;58.56;99200.08;112019;1207;98963;-79
2021/09/10 03:19:45;;;;;;;19.80;8.60;;;;;;;12.96;58.58;99200.52;111964;1208;108625;-76
2021/09/10 03:22:13;;;;;;;21.20;8.30;;;;;;;12.90;58.59;99204.33;111949;1201;99044;-74
2021/09/10 03:24:41;;;;;;;21.60;9.50;;;;;;;12.88;58.66;99207.20;112014;1202;98942;-74
2021/09/10 03:27:09;;;;;;;20.20;8.80;;;;;;;12.86;58.64;99208.64;112015;1207;112465;-73
2021/09/10 03:29:36;;;;;;;21.00;8.50;;;;;;;12.83;58.70;99206.56;112003;1207;98907;-74
2021/09/10 03:32:08;;;;;;;20.80;9.30;;;;;;;12.78;58.52;99204.40;111976;1208;108811;-75
2021/09/10 03:34:36;;;;;;;21.00;8.70;;;;;;;12.72;58.55;99202.74;111982;1207;99044;-74
2021/09/10 03:37:07;;;;;;;18.90;8.10;;;;;;;12.64;58.60;99204.06;111986;1207;98971;-74
2021/09/10 03:39:35;;;;;;;21.10;8.90;;;;;;;12.58;58.62;99208.98;111974;1210;110734;-74
2021/09/10 03:42:03;;;;;;;18.60;8.50;;;;;;;12.53;58.60;99210.30;111987;1201;96594;-73
2021/09/10 03:44:30;;;;;;;22.30;9.90;;;;;;;12.44;58.72;99210.41;111938;1208;107649;-75
2021/09/10 03:46:59;;;;;;;24.20;9.90;;;;;;;12.38;59.06;99210.20;111987;1207;99118;-74
2021/09/10 03:49:29;;;;;;;21.10;9.10;;;;;;;12.34;59.00;99215.16;112023;1208;99066;-74
2021/09/10 03:52:02;;;;;;;19.80;9.60;;;;;;;12.30;59.07;99211.52;112020;1201;112451;-74
2021/09/10 03:54:30;;;;;;;19.50;8.80;;;;;;;12.29;59.21;99212.11;111949;1207;98919;-73
2021/09/10 03:56:57;;;;;;;22.90;9.50;;;;;;;12.30;59.28;99210.80;111949;1208;106566;-74
2021/09/10 03:59:25;;;;;;;19.60;9.10;;;;;;;12.31;59.32;99213.07;111950;1203;99038;-73
2021/09/10 04:01:53;;;;;;;23.20;9.90;;;;;;;12.29;59.36;99211.59;112001;1207;98977;-73
2021/09/10 04:04:24;;;;;;;20.60;9.20;;;;;;;12.30;59.51;99216.67;111974;1207;112260;-74
2021/09/10 04:06:54;;;;;;;23.50;9.70;;;;;;;12.31;59.58;99218.96;111999;1203;99643;-75
2021/09/10 04:09:22;;;;;;;22.60;8.90;;;;;;;12.31;59.46;99217.00;111977;1211;107451;-74
2021/09/10 04:11:49;;;;;;;22.70;9.70;;;;;;;12.27;59.38;99218.56;111990;1210;98943;-75
2021/09/10 04:14:17;;;;;;;21.40;9.60;;;;;;;12.25;59.60;99222.10;111989;1207;98927;-74
2021/09/10 04:16:45;;;;;;;20.60;8.90;;;;;;;12.26;59.61;99227.70;111978;1208;112453;-73
2021/09/10 04:19:15;;;;;;;24.60;9.90;;;;;;;12.24;59.55;99229.05;111992;1207;96390;-76
2021/09/10 04:21:43;;;;;;;21.40;9.90;;;;;;;12.23;59.55;99229.48;111983;1208;107469;-79
2021/09/10 04:24:17;;;;;;;22.40;9.30;;;;;;;12.19;59.56;99225.33;111983;1199;98971;-74
2021/09/10 04:26:45;;;;;;;20.60;9.00;;;;;;;12.15;59.41;99224.95;111958;1202;99020;-72
2021/09/10 04:29:13;;;;;;;21.90;9.90;;;;;;;12.11;59.67;99225.80;111891;1208;112409;-77
2021/09/10 04:31:41;;;;;;;24.00;9.80;;;;;;;12.09;59.76;99224.71;111942;1207;99030;-79
2021/09/10 04:34:09;;;;;;;24.60;9.70;;;;;;;12.08;59.93;99226.55;112001;1208;107456;-77
2021/09/10 04:36:39;;;;;;;19.80;8.90;;;;;;;12.10;59.96;99226.08;111988;1202;98949;-77
2021/09/10 04:39:07;;;;;;;20.90;9.10;;;;;;;12.11;59.99;99226.98;112014;1202;96388;-77
2021/09/10 04:41:34;;;;;;;20.20;9.30;;;;;;;12.12;59.95;99226.95;111988;1208;112863;-77
2021/09/10 04:44:02;;;;;;;24.60;10.10;;;;;;;12.10;59.97;99229.05;111998;1208;98930;-76
2021/09/10 04:46:35;;;;;;;24.50;10.40;;;;;;;12.09;60.04;99230.59;111992;1203;108791;-77
2021/09/10 04:49:03;;;;;;;22.80;10.40;;;;;;;12.09;60.10;99231.80;111957;1206;99090;-78
2021/09/10 04:51:30;;;;;;;24.70;10.10;;;;;;;12.10;60.07;99232.30;111995;1207;96395;-78
2021/09/10 04:54:00;;;;;;;21.90;9.40;;;;;;;12.11;60.35;99232.35;111990;1208;113690;-77
2021/09/10 04:56:30;;;;;;;24.30;10.60;;;;;;;12.13;60.42;99232.36;112005;1199;99032;-78
2021/09/10 04:59:04;;;;;;;21.70;9.60;;;;;;;12.16;60.35;99235.38;111975;1209;106723;-78
2021/09/10 05:01:32;;;;;;;23.40;10.00;;;;;;;12.18;60.35;99233.63;111980;1207;98946;-76
2021/09/10 05:04:03;;;;;;;21.00;8.70;;;;;;;12.20;60.56;99236.98;112016;1208;99081;-81
2021/09/10 05:06:31;;;;;;;20.80;9.40;;;;;;;12.25;60.37;99238.96;111974;1208;112210;-79
2021/09/10 05:08:58;;;;;;;22.90;9.80;;;;;;;12.28;60.49;99239.99;112025;1208;98954;-77
2021/09/10 05:11:26;;;;;;;20.00;9.30;;;;;;;12.31;60.74;99241.51;111953;1208;107502;-78
2021/09/10 05:13:54;;;;;;;21.20;9.10;;;;;;;12.35;60.51;99243.12;111953;1203;99648;-78
2021/09/10 05:16:22;;;;;;;21.80;9.70;;;;;;;12.40;60.64;99243.48;111891;1206;97075;-77
2021/09/10 05:18:50;;;;;;;24.70;10.00;;;;;;;12.44;60.53;99244.94;111987;1208;112542;-77
2021/09/10 05:21:18;;;;;;;22.70;9.40;;;;;;;12.47;60.57;99245.06;112030;1208;97028;-76
2021/09/10 05:23:46;;;;;;;21.20;9.80;;;;;;;12.50;60.76;99250.54;111989;1201;107437;-75
2021/09/10 05:26:13;;;;;;;22.10;9.00;;;;;;;12.53;60.63;99246.75;111950;1208;99004;-80
2021/09/10 05:28:41;;;;;;;22.40;9.40;;;;;;;12.56;60.87;99251.31;112048;1201;98987;-77
2021/09/10 05:31:11;;;;;;;23.40;10.20;;;;;;;12.58;60.92;99245.27;111993;1207;112561;-78
2021/09/10 05:33:39;;;;;;;21.30;8.40;;;;;;;12.62;60.92;99245.55;112024;1209;99000;-79
2021/09/10 05:36:10;;;;;;;22.00;9.60;;;;;;;12.64;61.06;99247.70;111880;1209;107505;-77
2021/09/10 05:38:40;;;;;;;23.80;10.30;;;;;;;12.66;61.15;99252.28;111981;1207;98936;-78
2021/09/10 05:41:07;;;;;;;21.70;10.40;;;;;;;12.70;61.23;99250.93;111990;1203;98537;-79
2021/09/10 05:43:35;;;;;;;20.20;9.20;;;;;;;12.74;61.21;99248.85;112022;1207;112479;-78
2021/09/10 05:46:03;;;;;;;24.30;10.40;;;;;;;12.79;61.27;99250.95;111958;1208;98997;-77
2021/09/10 05:48:31;;;;;;;21.50;10.10;;;;;;;12.86;61.21;99253.44;111992;1207;107505;-77
2021/09/10 05:50:59;;;;;;;21.20;10.10;;;;;;;12.91;61.36;99252.46;111975;1207;96402;-77
2021/09/10 05:53:30;;;;;;;23.30;9.90;;;;;;;12.99;61.48;99254.42;112020;1200;99020;-78
2021/09/10 05:56:01;;;;;;;21.30;9.50;;;;;;;13.05;61.43;99257.85;111965;1208;112494;-77
2021/09/10 05:58:29;;;;;;;24.50;11.50;;;;;;;13.09;61.43;99259.42;112000;1208;99011;-77
2021/09/10 06:00:57;;;;;;;22.40;10.60;;;;;;;13.14;61.49;99257.83;111962;1203;107434;-75
2021/09/10 06:03:27;;;;;;;23.40;9.60;;;;;;;13.20;61.50;99264.13;111941;1202;99018;-77
2021/09/10 06:05:57;;;;;;;22.00;10.10;;;;;;;13.26;61.48;99263.78;111996;1202;97100;-77
2021/09/10 06:08:25;;;;;;;21.30;10.10;;;;;;;13.32;61.65;99263.14;111959;1208;112405;-77
2021/09/10 06:10:53;;;;;;;21.20;9.30;;;;;;;13.39;61.70;99265.43;111913;1208;99027;-78
2021/09/10 06:13:21;;;;;;;22.80;9.60;;;;;;;13.48;61.76;99271.88;111950;1207;107456;-77
2021/09/10 06:15:51;;;;;;;20.10;9.10;;;;;;;13.56;61.68;99277.59;112006;1208;96422;-75
2021/09/10 06:18:19;;;;;;;22.90;10.20;;;;;;;13.65;61.80;99275.64;111954;1203;99121;-77
2021/09/10 06:20:46;;;;;;;19.90;8.20;;;;;;;13.73;61.76;99275.16;111988;1208;112474;-77
2021/09/10 06:23:17;;;;;;;23.70;10.00;;;;;;;13.83;61.79;99279.38;111993;1208;98937;-78
2021/09/10 06:25:45;;;;;;;19.30;9.00;;;;;;;13.91;61.84;99278.69;111909;1210;107245;-78
2021/09/10 06:28:15;;;;;;;23.50;8.90;;;;;;;13.99;61.79;99276.08;111982;1206;99046;-77
2021/09/10 06:30:43;;;;;;;20.50;9.10;;;;;;;14.07;61.93;99280.00;111938;1208;98965;-78
2021/09/10 06:33:10;;;;;;;23.00;8.50;;;;;;;14.16;61.93;99278.96;111902;1208;112467;-74
2021/09/10 06:35:38;;;;;;;21.90;9.40;;;;;;;14.23;61.83;99279.44;111909;1208;99072;-77
2021/09/10 06:38:06;;;;;;;20.70;8.40;;;;;;;14.32;62.11;99280.27;111911;1208;107337;-77
2021/09/10 06:40:34;;;;;;;22.10;8.90;;;;;;;14.39;62.06;99283.38;111906;1201;100238;-77
2021/09/10 06:43:02;;;;;;;18.70;8.60;;;;;;;14.48;62.04;99283.58;111944;1206;96454;-77
2021/09/10 06:45:30;;;;;;;23.10;9.20;;;;;;;14.56;62.14;99283.08;111932;1208;112480;-77
2021/09/10 06:47:59;;;;;;;21.60;8.80;;;;;;;14.64;62.11;99283.08;112027;1203;99038;-76
2021/09/10 06:50:31;;;;;;;20.60;8.70;;;;;;;14.73;62.13;99285.35;111958;1208;107525;-77
2021/09/10 06:52:59;;;;;;;20.30;8.30;;;;;;;14.83;62.03;99286.30;111968;1207;98959;-78
2021/09/10 06:55:27;;;;;;;20.20;8.40;;;;;;;14.93;62.13;99285.66;111974;1202;99669;-77
2021/09/10 08:28:18;;;;;;;13.60;6.80;;;;;;;36.54;50.99;99290.34;111973;1202;105149;-75
2021/09/10 08:30:48;;;;;;;14.90;6.50;;;;;;;37.07;49.65;99284.53;112017;1208;98947;-76
2021/09/10 08:33:19;;;;;;;14.80;6.50;;;;;;;37.21;49.03;99279.81;111975;1208;98965;-75
2021/09/10 08:35:47;;;;;;;13.60;6.20;;;;;;;37.54;48.99;99277.67;112025;1200;99023;-75
2021/09/10 08:38:18;;;;;;;15.50;6.30;;;;;;;37.78;48.38;99276.59;112061;1206;96307;-75
2021/09/10 08:40:48;;;;;;;14.00;6.60;;;;;;;37.91;47.85;99276.85;111998;1208;103919;-74
2021/09/10 08:43:21;;;;;;;12.80;6.30;;;;;;;38.16;47.38;99278.11;112021;1203;96434;-74
2021/09/10 08:45:58;;;;;;;13.30;6.30;;;;;;;38.31;47.03;99277.65;111969;1207;98943;-74
2021/09/10 08:48:29;;;;;;;12.10;6.60;;;;;;;38.54;46.64;99270.35;111984;1202;98912;-74
2021/09/10 08:50:57;;;;;;;;;;;;;;;38.82;46.37;99269.91;112041;1203;99002;-77
2021/09/10 08:53:28;;;;;;;16.20;8.00;;;;;;;38.88;45.76;99269.24;111975;1208;104132;-75
2021/09/10 08:55:56;;;;;;;15.20;6.90;;;;;;;38.89;44.95;99264.58;111989;1207;99469;-75
2021/09/10 08:58:25;;;;;;;13.50;6.90;;;;;;;38.93;43.91;99268.52;111968;1208;98873;-75
2021/09/10 09:01:01;;;;;;;13.50;6.20;;;;;;;38.93;43.60;99271.64;111933;1206;99061;-74
2021/09/10 09:03:35;;;;;;;13.60;7.10;;;;;;;38.93;43.00;99272.30;111998;1202;99010;-75
2021/09/10 09:06:03;;;;;;;;;;;;;;;38.96;42.96;99271.48;112080;1207;103854;-75
2021/09/10 09:08:31;;;;;;;11.00;6.10;;;;;;;38.80;42.42;99268.14;112347;1199;99472;-75
2021/09/10 09:11:11;;;;;;;15.40;6.80;;;;;;;38.52;41.36;99270.70;111928;1200;99100;-75
2021/09/10 09:13:42;;;;;;;16.10;6.80;;;;;;;38.29;41.22;99270.45;111854;1208;98982;-77
2021/09/10 09:16:30;;;;;;;17.10;6.60;;;;;;;38.14;40.46;99272.68;111849;1202;99122;-75
2021/09/10 09:19:00;;;;;;;15.60;6.70;;;;;;;37.71;39.65;99272.13;111883;1208;103957;-76
2021/09/10 09:21:30;;;;;;;12.40;6.00;;;;;;;37.27;39.41;99267.91;111934;1208;99007;-75
2021/09/10 09:24:13;;;;;;;10.10;6.00;;;;;;;37.18;39.09;99264.58;111934;1203;99028;-75
2021/09/10 09:26:47;;;;;;;10.60;5.80;;;;;;;37.31;38.75;99259.84;111942;1199;97525;-77
2021/09/10 09:29:19;;;;;;;10.20;6.00;;;;;;;37.28;38.35;99260.59;111882;1202;97473;-74
2021/09/10 09:31:57;;;;;;;16.40;9.60;;;;;;;37.23;38.07;99259.56;111794;1208;103901;-74
2021/09/10 09:35:01;;;;;;;20.00;12.30;;;;;;;37.24;37.87;99259.77;111940;1207;96900;-75
2021/09/10 09:37:35;;;;;;;14.60;6.80;;;;;;;37.44;37.68;99263.25;111838;1208;99263;-75
2021/09/10 09:40:03;;;;;;;15.20;6.60;;;;;;;37.46;37.27;99264.97;111889;1206;99048;-74
2021/09/10 09:42:35;;;;;;;12.60;6.60;;;;;;;37.24;37.06;99264.43;111967;1199;98995;-75
2021/09/10 09:45:22;;;;;;;15.90;6.50;;;;;;;36.87;36.64;99261.06;111990;1203;103970;-75
2021/09/10 09:47:53;;;;;;;12.40;6.10;;;;;;;36.31;36.48;99264.79;111899;1203;96829;-75
2021/09/10 09:50:24;;;;;;;18.60;7.60;;;;;;;35.74;36.38;99264.62;111842;1202;99790;-74
2021/09/10 09:52:52;;;;;;;16.20;6.90;;;;;;;35.21;36.48;99264.73;111938;1208;96834;-75
2021/09/10 09:55:20;;;;;;;13.70;6.00;;;;;;;34.63;36.14;99266.72;111955;1201;98920;-76
2021/09/10 09:57:52;;;;;;;16.70;7.60;;;;;;;33.99;35.62;99269.70;111926;1208;103796;-75
2021/09/10 10:00:23;;;;;;;15.80;8.40;;;;;;;33.56;35.91;99268.02;111979;1206;99472;-75
2021/09/10 10:02:50;;;;;;;16.60;7.30;;;;;;;33.09;35.66;99268.20;111836;1208;101173;-75
2021/09/10 10:05:21;;;;;;;15.20;6.70;;;;;;;32.57;35.41;99264.36;111843;1209;96382;-75
2021/09/10 10:08:04;;;;;;;16.60;7.30;;;;;;;32.32;35.20;99262.05;111961;1201;99715;-76
2021/09/10 10:10:39;;;;;;;;;;;;;;;32.18;35.06;99260.05;111951;1209;103818;-75
2021/09/10 10:13:13;;;;;;;13.30;6.50;;;;;;;31.81;34.87;99258.30;111931;1208;99524;-76
2021/09/10 10:15:45;;;;;;;14.10;6.90;;;;;;;31.25;34.50;99253.91;111928;1208;98895;-76
2021/09/10 10:18:45;;;;;;;15.70;6.80;;;;;;;30.65;34.26;99255.17;111922;1206;99378;-75
2021/09/10 10:21:16;;;;;;;15.70;6.70;;;;;;;30.29;34.37;99254.39;111930;1201;100252;-75
2021/09/10 10:23:44;;;;;;;14.60;6.80;;;;;;;30.19;34.42;99249.20;111939;1208;112024;-77
2021/09/10 10:26:31;;;;;;;17.00;7.00;;;;;;;30.14;34.39;99255.67;112021;1201;99002;-78
2021/09/10 10:29:14;;;;;;;14.20;6.60;;;;;;;29.84;33.98;99255.77;111942;1209;107494;-75
2021/09/10 10:32:28;;;;;;;28.10;20.00;;;;;;;29.50;34.01;99252.15;111893;1206;98937;-75
2021/09/10 10:35:25;;;;;;;23.20;10.50;;;;;;;29.33;34.30;99254.20;111926;1205;99042;-76
2021/09/10 10:38:08;;;;;;;18.00;7.40;;;;;;;29.34;34.20;99246.99;111870;1203;112534;-75
2021/09/10 10:40:50;;;;;;;18.70;6.90;;;;;;;29.23;34.04;99246.52;111804;1203;99211;-76
2021/09/10 10:43:17;;;;;;;14.70;6.00;;;;;;;29.17;33.98;99243.11;111845;1207;107065;-75
2021/09/10 10:45:45;;;;;;;12.50;5.50;;;;;;;29.12;33.82;99242.33;111883;1206;98985;-76
2021/09/10 10:48:32;;;;;;;16.60;6.40;;;;;;;29.14;33.93;99241.59;111837;1208;97129;-76
2021/09/10 10:51:21;;;;;;;13.70;6.10;;;;;;;28.98;33.52;99238.91;111949;1207;112438;-76
2021/09/10 10:53:52;;;;;;;14.10;5.90;;;;;;;28.84;33.45;99236.30;111876;1199;98940;-75
2021/09/10 10:56:26;;;;;;;12.00;5.70;;;;;;;28.83;33.69;99234.57;111854;1208;107568;-77
2021/09/10 10:59:15;;;;;;;12.70;5.60;;;;;;;28.86;33.55;99230.55;111871;1207;98937;-77
2021/09/10 11:02:14;;;;;;;15.10;6.00;;;;;;;28.90;33.60;99235.60;111953;1201;98913;-76
2021/09/10 11:04:49;;;;;;;18.00;6.60;;;;;;;28.87;33.55;99229.53;111945;1209;112460;-76
2021/09/10 11:07:24;;;;;;;16.30;6.00;;;;;;;28.89;33.57;99225.39;111949;1208;96439;-75
2021/09/10 11:10:16;;;;;;;14.80;5.90;;;;;;;28.89;33.52;99226.05;111922;1200;107260;-75
2021/09/10 11:12:54;;;;;;;15.90;6.50;;;;;;;28.81;33.27;99222.80;112013;1200;97072;-76
2021/09/10 11:15:33;;;;;;;13.90;6.40;;;;;;;28.71;32.98;99222.05;111878;1200;98994;-77
2021/09/10 11:18:08;;;;;;;11.70;5.80;;;;;;;28.33;32.51;99223.48;111843;1199;112359;-76
2021/09/10 11:20:53;;;;;;;14.40;6.10;;;;;;;28.01;32.83;99221.58;111846;1200;97152;-77
2021/09/10 11:23:36;;;;;;;13.20;5.80;;;;;;;27.99;33.19;99220.98;111965;1207;107267;-78
2021/09/10 11:26:09;;;;;;;;;;;;;;;28.11;33.25;99209.38;111964;1199;98912;-75
2021/09/10 11:28:38;;;;;;;13.80;6.40;;;;;;;28.23;33.26;99207.58;111923;1200;99046;-77
2021/09/10 11:31:13;;;;;;;13.80;6.10;;;;;;;28.37;33.27;99202.02;111821;1203;112332;-77
2021/09/10 11:33:52;;;;;;;11.70;5.70;;;;;;;28.44;32.89;99202.84;111911;1208;97013;-76
2021/09/10 11:36:26;;;;;;;13.40;5.60;;;;;;;28.45;33.08;99198.70;112518;1201;107611;-77
2021/09/10 11:39:06;;;;;;;13.40;5.50;;;;;;;28.41;32.87;99195.08;111899;1201;99107;-77
2021/09/10 11:41:36;;;;;;;14.00;6.10;;;;;;;28.39;32.78;99193.79;111868;1199;96601;-76
2021/09/10 11:44:09;;;;;;;12.40;5.80;;;;;;;28.29;32.96;99197.60;111864;1208;113601;-76
2021/09/10 11:46:39;;;;;;;13.30;5.80;;;;;;;28.24;32.71;99191.42;111810;1201;98960;-75
2021/09/10 11:49:13;;;;;;;12.40;5.50;;;;;;;28.12;32.52;99194.41;111832;1209;107462;-75
2021/09/10 11:51:48;;;;;;;19.30;9.60;;;;;;;27.91;32.57;99189.95;111764;1203;98974;-76
2021/09/10 11:54:20;;;;;;;21.70;10.90;;;;;;;27.85;32.65;99187.17;111772;1203;98957;-75
2021/09/10 11:56:48;;;;;;;14.60;7.00;;;;;;;27.86;32.77;99186.11;111990;1200;112489;-77
2021/09/10 11:59:20;;;;;;;14.70;6.90;;;;;;;27.89;32.82;99185.64;111901;1208;98926;-76
2021/09/10 12:01:49;;;;;;;13.70;6.10;;;;;;;27.83;32.68;99177.77;112002;1199;107484;-76
2021/09/10 12:04:30;;;;;;;13.50;6.10;;;;;;;27.82;32.66;99178.07;112169;1199;99028;-77
2021/09/10 12:07:02;;;;;;;13.10;5.90;;;;;;;27.75;32.43;99170.14;111876;1208;99046;-77
2021/09/10 12:09:35;;;;;;;17.80;6.70;;;;;;;27.63;32.60;99163.12;111928;1207;112487;-75
2021/09/10 12:12:17;;;;;;;12.30;5.60;;;;;;;27.57;32.52;99157.82;111960;1207;99106;-76
2021/09/10 12:14:54;;;;;;;;;;;;;;;27.58;32.65;99161.63;111941;1208;107507;-76
2021/09/10 12:17:27;;;;;;;15.20;6.60;;;;;;;27.48;32.53;99155.44;111933;1199;99784;-77
2021/09/10 12:20:03;;;;;;;11.40;5.60;;;;;;;27.37;32.70;99158.26;111975;1199;99767;-76
2021/09/10 12:22:42;;;;;;;13.40;5.80;;;;;;;27.38;32.81;99158.04;111821;1202;112496;-77
2021/09/10 12:25:31;;;;;;;18.50;6.80;;;;;;;27.42;33.06;99155.34;111880;1208;99041;-77
2021/09/10 12:28:08;;;;;;;20.60;10.00;;;;;;;27.45;33.02;99156.56;111933;1207;107405;-77
2021/09/10 12:31:05;;;;;;;14.40;6.70;;;;;;;27.47;32.90;99158.05;111972;1200;96390;-77
2021/09/10 12:33:38;;;;;;;13.40;6.00;;;;;;;27.28;32.73;99154.58;111892;1209;99037;-76
2021/09/10 12:36:10;;;;;;;15.40;6.10;;;;;;;27.20;32.68;99154.27;111875;1208;112537;-77
2021/09/10 12:38:43;;;;;;;14.40;5.60;;;;;;;27.25;32.91;99149.34;111932;1208;98905;-80
2021/09/10 12:41:15;;;;;;;21.80;6.80;;;;;;;27.30;32.66;99148.59;111904;1208;107503;-77
2021/09/10 12:43:43;;;;;;;16.50;6.50;;;;;;;27.13;32.57;99144.11;111930;1208;96462;-78
2021/09/10 12:46:11;;;;;;;14.30;5.90;;;;;;;27.00;32.78;99141.52;111927;1201;99038;-78
2021/09/10 12:48:38;;;;;;;14.00;6.30;;;;;;;26.99;33.09;99138.52;111939;1208;112321;-77
2021/09/10 12:51:07;;;;;;;14.50;5.70;;;;;;;26.93;32.73;99145.10;111953;1208;97199;-78
2021/09/10 12:53:35;;;;;;;15.90;6.20;;;;;;;26.77;32.70;99144.94;111852;1208;107118;-76
2021/09/10 12:56:04;;;;;;;13.40;5.80;;;;;;;26.62;32.82;99138.43;111929;1199;99049;-77
2021/09/10 12:58:32;;;;;;;14.30;6.00;;;;;;;26.60;32.75;99136.55;111877;1201;98959;-77
2021/09/10 13:01:01;;;;;;;11.20;5.60;;;;;;;26.51;32.79;99134.06;112481;1200;112512;-76
2021/09/10 13:03:33;;;;;;;14.90;6.00;;;;;;;26.49;33.06;99131.17;111911;1200;97454;-76